createdAt,value
2016-10-28T00:00:06.805Z,969.06
2016-10-28T00:01:06.821Z,969.06
2016-10-28T00:02:06.839Z,969.08
2016-10-28T00:03:06.855Z,969.05
2016-10-28T00:04:06.873Z,969.03
2016-10-28T00:05:06.890Z,969.01
2016-10-28T00:06:06.908Z,969.05
2016-10-28T00:07:06.924Z,969.07
2016-10-28T00:08:06.941Z,969.08
2016-10-28T00:09:06.958Z,969.05
2016-10-28T00:10:06.976Z,969.03
2016-10-28T00:11:06.992Z,969.09
2016-10-28T00:12:07.010Z,969.06
2016-10-28T00:13:07.027Z,969.04
2016-10-28T00:14:07.045Z,968.99
2016-10-28T00:15:07.062Z,969.01
2016-10-28T00:16:07.079Z,969.01
2016-10-28T00:17:07.096Z,968.98
2016-10-28T00:18:07.117Z,969.02
2016-10-28T00:19:07.128Z,969.01
2016-10-28T00:20:07.149Z,969.01
2016-10-28T00:21:07.164Z,969
2016-10-28T00:22:07.181Z,969.04
2016-10-28T00:23:07.197Z,969.07
2016-10-28T00:24:07.215Z,969.04
2016-10-28T00:25:07.232Z,969
2016-10-28T00:26:07.255Z,968.97
2016-10-28T00:27:07.266Z,968.99
2016-10-28T00:28:07.282Z,968.94
2016-10-28T00:29:07.299Z,968.96
2016-10-28T00:30:07.314Z,968.91
2016-10-28T00:31:07.333Z,968.9
2016-10-28T00:32:07.350Z,968.94
2016-10-28T00:33:07.379Z,968.94
2016-10-28T00:34:07.383Z,968.98
2016-10-28T00:35:07.401Z,968.95
2016-10-28T00:36:07.418Z,969.02
2016-10-28T00:37:07.434Z,968.98
2016-10-28T00:38:07.455Z,968.98
2016-10-28T00:39:07.470Z,968.98
2016-10-28T00:40:07.487Z,968.95
2016-10-28T00:41:07.505Z,968.93
2016-10-28T00:42:07.522Z,968.91
2016-10-28T00:43:07.539Z,968.84
2016-10-28T00:44:07.556Z,968.74
2016-10-28T00:45:07.609Z,968.71
2016-10-28T00:46:07.590Z,968.69
2016-10-28T00:47:07.609Z,968.63
2016-10-28T00:48:07.624Z,968.6
2016-10-28T00:49:07.642Z,968.57
2016-10-28T00:50:07.664Z,968.54
2016-10-28T00:51:07.676Z,968.6
2016-10-28T00:52:07.693Z,968.55
2016-10-28T00:53:07.712Z,968.57
2016-10-28T00:54:07.729Z,968.57
2016-10-28T00:55:07.751Z,968.56
2016-10-28T00:56:07.764Z,968.59
2016-10-28T00:57:07.780Z,968.59
2016-10-28T00:58:07.798Z,968.58
2016-10-28T00:59:07.815Z,968.61
2016-10-28T01:00:07.832Z,968.62
2016-10-28T01:01:07.850Z,968.61
2016-10-28T01:02:07.866Z,968.56
2016-10-28T01:03:07.889Z,968.59
2016-10-28T01:04:07.900Z,968.56
2016-10-28T01:05:07.918Z,968.56
2016-10-28T01:06:07.934Z,968.58
2016-10-28T01:07:07.951Z,968.62
2016-10-28T01:08:07.968Z,968.66
2016-10-28T01:09:07.983Z,968.7
2016-10-28T01:10:08.002Z,968.72
2016-10-28T01:11:08.019Z,968.72
2016-10-28T01:12:08.037Z,968.73
2016-10-28T01:13:08.054Z,968.68
2016-10-28T01:14:08.071Z,968.67
2016-10-28T01:15:08.088Z,968.71
2016-10-28T01:16:08.105Z,968.68
2016-10-28T01:17:08.122Z,968.64
2016-10-28T01:18:08.159Z,968.61
2016-10-28T01:19:08.155Z,968.62
2016-10-28T01:20:08.172Z,968.59
2016-10-28T01:21:08.190Z,968.6
2016-10-28T01:22:08.207Z,968.6
2016-10-28T01:23:08.224Z,968.58
2016-10-28T01:24:08.240Z,968.57
2016-10-28T01:25:08.258Z,968.55
2016-10-28T01:26:08.274Z,968.54
2016-10-28T01:27:08.292Z,968.54
2016-10-28T01:28:08.308Z,968.55
2016-10-28T01:29:08.325Z,968.61
2016-10-28T01:30:08.343Z,968.57
2016-10-28T01:31:08.359Z,968.55
2016-10-28T01:32:08.378Z,968.49
2016-10-28T01:33:08.394Z,968.5
2016-10-28T01:34:08.410Z,968.37
2016-10-28T01:35:08.427Z,968.36
2016-10-28T01:36:08.444Z,968.32
2016-10-28T01:37:08.463Z,968.29
2016-10-28T01:38:08.480Z,968.26
2016-10-28T01:39:08.495Z,968.26
2016-10-28T01:40:08.513Z,968.23
2016-10-28T01:41:08.529Z,968.23
2016-10-28T01:42:08.546Z,968.24
2016-10-28T01:43:08.563Z,968.27
2016-10-28T01:44:08.579Z,968.29
2016-10-28T01:45:08.597Z,968.31
2016-10-28T01:46:08.613Z,968.32
2016-10-28T01:47:08.632Z,968.39
2016-10-28T01:48:08.647Z,968.41
2016-10-28T01:49:08.671Z,968.43
2016-10-28T01:50:08.680Z,968.44
2016-10-28T01:51:08.703Z,968.47
2016-10-28T01:52:08.716Z,968.5
2016-10-28T01:53:08.731Z,968.52
2016-10-28T01:54:08.753Z,968.55
2016-10-28T01:55:08.766Z,968.53
2016-10-28T01:56:08.782Z,968.56
2016-10-28T01:57:08.799Z,968.61
2016-10-28T01:58:08.818Z,968.61
2016-10-28T01:59:08.833Z,968.63
2016-10-28T02:00:08.849Z,968.66
2016-10-28T02:01:08.866Z,968.66
2016-10-28T02:02:08.890Z,968.61
2016-10-28T02:03:08.900Z,968.55
2016-10-28T02:04:08.918Z,968.48
2016-10-28T02:05:08.933Z,968.41
2016-10-28T02:06:08.951Z,968.39
2016-10-28T02:07:08.968Z,968.34
2016-10-28T02:08:08.983Z,968.32
2016-10-28T02:09:09.000Z,968.28
2016-10-28T02:10:09.017Z,968.27
2016-10-28T02:11:09.034Z,968.28
2016-10-28T02:12:09.051Z,968.3
2016-10-28T02:13:09.070Z,968.26
2016-10-28T02:14:09.084Z,968.26
2016-10-28T02:15:09.102Z,968.24
2016-10-28T02:16:09.117Z,968.22
2016-10-28T02:17:09.136Z,968.24
2016-10-28T02:18:09.152Z,968.23
2016-10-28T02:19:09.168Z,968.24
2016-10-28T02:20:09.185Z,968.18
2016-10-28T02:21:09.202Z,968.22
2016-10-28T02:22:09.220Z,968.24
2016-10-28T02:23:09.236Z,968.25
2016-10-28T02:24:09.260Z,968.25
2016-10-28T02:25:09.270Z,968.26
2016-10-28T02:26:09.286Z,968.3
2016-10-28T02:27:09.306Z,968.32
2016-10-28T02:28:09.320Z,968.3
2016-10-28T02:29:09.337Z,968.34
2016-10-28T02:30:09.354Z,968.32
2016-10-28T02:31:09.371Z,968.33
2016-10-28T02:32:09.388Z,968.33
2016-10-28T02:33:09.405Z,968.35
2016-10-28T02:34:09.422Z,968.35
2016-10-28T02:35:09.440Z,968.34
2016-10-28T02:36:09.456Z,968.37
2016-10-28T02:37:09.472Z,968.39
2016-10-28T02:38:09.490Z,968.43
2016-10-28T02:39:09.506Z,968.41
2016-10-28T02:40:09.523Z,968.39
2016-10-28T02:41:09.540Z,968.4
2016-10-28T02:42:09.557Z,968.39
2016-10-28T02:43:09.574Z,968.4
2016-10-28T02:44:09.591Z,968.45
2016-10-28T02:45:09.607Z,968.46
2016-10-28T02:46:09.628Z,968.5
2016-10-28T02:47:09.642Z,968.5
2016-10-28T02:48:09.657Z,968.57
2016-10-28T02:49:09.675Z,968.51
2016-10-28T02:50:09.693Z,968.53
2016-10-28T02:51:09.709Z,968.52
2016-10-28T02:52:09.725Z,968.57
2016-10-28T02:53:09.744Z,968.52
2016-10-28T02:54:09.768Z,968.55
2016-10-28T02:55:09.781Z,968.61
2016-10-28T02:56:09.793Z,968.54
2016-10-28T02:57:09.810Z,968.57
2016-10-28T02:58:09.827Z,968.54
2016-10-28T02:59:09.843Z,968.53
2016-10-28T03:00:09.861Z,968.54
2016-10-28T03:01:09.893Z,968.56
2016-10-28T03:02:09.895Z,968.57
2016-10-28T03:03:09.912Z,968.54
2016-10-28T03:04:09.929Z,968.57
2016-10-28T03:05:09.946Z,968.54
2016-10-28T03:06:09.961Z,968.57
2016-10-28T03:07:09.979Z,968.53
2016-10-28T03:08:09.996Z,968.57
2016-10-28T03:09:10.013Z,968.54
2016-10-28T03:10:10.029Z,968.58
2016-10-28T03:11:10.046Z,968.63
2016-10-28T03:12:10.064Z,968.58
2016-10-28T03:13:10.081Z,968.53
2016-10-28T03:14:10.096Z,968.47
2016-10-28T03:15:10.115Z,968.5
2016-10-28T03:16:10.152Z,968.51
2016-10-28T03:17:10.171Z,968.48
2016-10-28T03:18:10.169Z,968.5
2016-10-28T03:19:10.203Z,968.52
2016-10-28T03:20:10.217Z,968.55
2016-10-28T03:21:10.228Z,968.54
2016-10-28T03:22:10.250Z,968.55
2016-10-28T03:23:10.265Z,968.55
2016-10-28T03:24:10.469Z,968.55
2016-10-28T03:25:10.306Z,968.54
2016-10-28T03:26:10.321Z,968.55
2016-10-28T03:27:10.316Z,968.51
2016-10-28T03:28:10.332Z,968.5
2016-10-28T03:29:10.349Z,968.45
2016-10-28T03:30:10.365Z,968.39
2016-10-28T03:31:10.400Z,968.41
2016-10-28T03:32:10.401Z,968.36
2016-10-28T03:33:10.414Z,968.37
2016-10-28T03:34:10.431Z,968.39
2016-10-28T03:35:10.448Z,968.4
2016-10-28T03:36:10.464Z,968.39
2016-10-28T03:37:10.481Z,968.44
2016-10-28T03:38:10.497Z,968.36
2016-10-28T03:39:10.513Z,968.37
2016-10-28T03:40:10.530Z,968.33
2016-10-28T03:41:10.546Z,968.29
2016-10-28T03:42:10.563Z,968.29
2016-10-28T03:43:10.579Z,968.25
2016-10-28T03:44:10.596Z,968.22
2016-10-28T03:45:10.613Z,968.23
2016-10-28T03:46:10.629Z,968.24
2016-10-28T03:47:10.645Z,968.25
2016-10-28T03:48:10.662Z,968.31
2016-10-28T03:49:10.678Z,968.31
2016-10-28T03:50:10.694Z,968.3
2016-10-28T03:51:10.712Z,968.29
2016-10-28T03:52:10.727Z,968.29
2016-10-28T03:53:10.748Z,968.27
2016-10-28T03:54:10.760Z,968.29
2016-10-28T03:55:10.778Z,968.3
2016-10-28T03:56:10.804Z,968.29
2016-10-28T03:57:10.810Z,968.21
2016-10-28T03:58:10.832Z,968.18
2016-10-28T03:59:10.844Z,968.21
2016-10-28T04:00:10.872Z,968.21
2016-10-28T04:01:10.874Z,968.24
2016-10-28T04:02:10.897Z,968.25
2016-10-28T04:03:10.907Z,968.32
2016-10-28T04:04:11.021Z,968.31
2016-10-28T04:05:11.029Z,968.33
2016-10-28T04:06:10.956Z,968.4
2016-10-28T04:07:10.972Z,968.47
2016-10-28T04:08:10.989Z,968.51
2016-10-28T04:09:11.007Z,968.61
2016-10-28T04:10:11.022Z,968.61
2016-10-28T04:11:11.039Z,968.6
2016-10-28T04:12:11.053Z,968.59
2016-10-28T04:13:11.171Z,968.62
2016-10-28T04:14:11.088Z,968.64
2016-10-28T04:16:11.119Z,968.68
2016-10-28T04:17:11.138Z,968.75
2016-10-28T04:18:11.153Z,968.72
2016-10-28T04:19:11.169Z,968.66
2016-10-28T04:20:11.185Z,968.64
2016-10-28T04:21:11.202Z,968.61
2016-10-28T04:22:11.220Z,968.61
2016-10-28T04:23:11.234Z,968.62
2016-10-28T04:24:11.251Z,968.61
2016-10-28T04:25:11.269Z,968.56
2016-10-28T04:26:11.284Z,968.56
2016-10-28T04:27:11.301Z,968.59
2016-10-28T04:28:11.316Z,968.59
2016-10-28T04:29:11.332Z,968.56
2016-10-28T04:30:11.348Z,968.56
2016-10-28T04:31:11.366Z,968.49
2016-10-28T04:32:11.381Z,968.48
2016-10-28T04:33:11.398Z,968.45
2016-10-28T04:34:11.413Z,968.42
2016-10-28T04:35:11.430Z,968.4
2016-10-28T04:36:11.452Z,968.36
2016-10-28T04:37:11.462Z,968.36
2016-10-28T04:38:11.481Z,968.3
2016-10-28T04:39:11.496Z,968.31
2016-10-28T04:40:11.511Z,968.34
2016-10-28T04:41:11.527Z,968.36
2016-10-28T04:43:11.562Z,968.34
2016-10-28T04:44:11.580Z,968.34
2016-10-28T04:45:11.592Z,968.34
2016-10-28T04:46:11.608Z,968.34
2016-10-28T04:47:11.624Z,968.35
2016-10-28T04:48:11.640Z,968.36
2016-10-28T04:49:11.656Z,968.41
2016-10-28T04:50:11.671Z,968.39
2016-10-28T04:51:11.689Z,968.39
2016-10-28T04:52:11.741Z,968.39
2016-10-28T04:53:11.723Z,968.37
2016-10-28T04:54:11.737Z,968.37
2016-10-28T04:55:11.753Z,968.32
2016-10-28T04:56:11.769Z,968.33
2016-10-28T04:57:11.785Z,968.34
2016-10-28T04:58:11.802Z,968.39
2016-10-28T04:59:11.819Z,968.38
2016-10-28T05:00:11.834Z,968.37
2016-10-28T05:01:11.851Z,968.34
2016-10-28T05:02:11.868Z,968.37
2016-10-28T05:03:11.885Z,968.39
2016-10-28T05:04:11.904Z,968.36
2016-10-28T05:05:11.915Z,968.36
2016-10-28T05:06:11.931Z,968.38
2016-10-28T05:07:11.947Z,968.38
2016-10-28T05:08:11.969Z,968.37
2016-10-28T05:09:11.980Z,968.44
2016-10-28T05:10:11.997Z,968.41
2016-10-28T05:11:12.012Z,968.42
2016-10-28T05:12:12.028Z,968.42
2016-10-28T05:13:12.045Z,968.43
2016-10-28T05:14:12.069Z,968.43
2016-10-28T05:15:12.076Z,968.46
2016-10-28T05:16:12.094Z,968.51
2016-10-28T05:17:12.111Z,968.49
2016-10-28T05:18:12.177Z,968.51
2016-10-28T05:19:12.141Z,968.53
2016-10-28T05:20:12.158Z,968.5
2016-10-28T05:21:12.194Z,968.5
2016-10-28T05:22:12.190Z,968.53
2016-10-28T05:23:12.206Z,968.52
2016-10-28T05:24:12.225Z,968.5
2016-10-28T05:25:12.238Z,968.51
2016-10-28T05:26:12.256Z,968.53
2016-10-28T05:27:12.271Z,968.56
2016-10-28T05:28:12.286Z,968.58
2016-10-28T05:29:12.303Z,968.65
2016-10-28T05:30:12.319Z,968.71
2016-10-28T05:31:12.337Z,968.72
2016-10-28T05:32:12.556Z,968.7
2016-10-28T05:33:12.369Z,968.72
2016-10-28T05:34:12.384Z,968.69
2016-10-28T05:35:12.402Z,968.66
2016-10-28T05:36:12.416Z,968.7
2016-10-28T05:37:12.433Z,968.65
2016-10-28T05:38:12.449Z,968.66
2016-10-28T05:39:12.465Z,968.65
2016-10-28T05:40:12.481Z,968.69
2016-10-28T05:41:12.498Z,968.68
2016-10-28T05:42:12.516Z,968.66
2016-10-28T05:43:12.539Z,968.67
2016-10-28T05:44:12.547Z,968.65
2016-10-28T05:45:12.570Z,968.61
2016-10-28T05:46:12.584Z,968.67
2016-10-28T05:47:12.597Z,968.64
2016-10-28T05:48:12.612Z,968.59
2016-10-28T05:49:12.629Z,968.62
2016-10-28T05:50:12.646Z,968.58
2016-10-28T05:51:12.660Z,968.57
2016-10-28T05:52:12.678Z,968.56
2016-10-28T05:53:12.693Z,968.58
2016-10-28T05:54:12.710Z,968.56
2016-10-28T05:55:12.801Z,968.58
2016-10-28T05:56:12.749Z,968.6
2016-10-28T05:57:12.758Z,968.57
2016-10-28T05:58:12.774Z,968.64
2016-10-28T05:59:12.792Z,968.64
2016-10-28T06:00:12.810Z,968.68
2016-10-28T06:01:12.823Z,968.72
2016-10-28T06:02:12.838Z,968.68
2016-10-28T06:03:13.081Z,968.71
2016-10-28T06:04:12.872Z,968.68
2016-10-28T06:05:12.888Z,968.64
2016-10-28T06:06:12.903Z,968.69
2016-10-28T06:07:12.927Z,968.71
2016-10-28T06:08:12.947Z,968.69
2016-10-28T06:09:12.962Z,968.73
2016-10-28T06:10:12.968Z,968.65
2016-10-28T06:11:12.985Z,968.72
2016-10-28T06:12:13.025Z,968.67
2016-10-28T06:13:13.038Z,968.73
2016-10-28T06:14:13.056Z,968.7
2016-10-28T06:15:13.051Z,968.73
2016-10-28T06:16:13.066Z,968.72
2016-10-28T06:17:13.085Z,968.76
2016-10-28T06:18:13.099Z,968.77
2016-10-28T06:19:13.120Z,968.79
2016-10-28T06:20:13.130Z,968.79
2016-10-28T06:21:13.147Z,968.79
2016-10-28T06:22:13.163Z,968.77
2016-10-28T06:23:13.180Z,968.75
2016-10-28T06:24:13.195Z,968.77
2016-10-28T06:25:13.213Z,968.76
2016-10-28T06:26:13.229Z,968.77
2016-10-28T06:27:13.244Z,968.79
2016-10-28T06:28:13.259Z,968.8
2016-10-28T06:29:13.277Z,968.77
2016-10-28T06:30:13.294Z,968.78
2016-10-28T06:31:13.312Z,968.79
2016-10-28T06:32:13.326Z,968.81
2016-10-28T06:33:13.343Z,968.81
2016-10-28T06:34:13.359Z,968.78
2016-10-28T06:35:13.383Z,968.8
2016-10-28T06:36:13.392Z,968.79
2016-10-28T06:37:13.408Z,968.83
2016-10-28T06:38:13.424Z,968.84
2016-10-28T06:39:13.441Z,968.83
2016-10-28T06:40:13.456Z,968.87
2016-10-28T06:41:13.476Z,968.86
2016-10-28T06:42:13.507Z,968.86
2016-10-28T06:43:13.505Z,968.87
2016-10-28T06:44:13.522Z,968.94
2016-10-28T06:45:13.538Z,968.92
2016-10-28T06:46:13.555Z,968.96
2016-10-28T06:47:13.571Z,968.94
2016-10-28T06:48:13.588Z,968.97
2016-10-28T06:49:13.604Z,968.98
2016-10-28T06:50:13.624Z,968.95
2016-10-28T06:51:13.637Z,968.95
2016-10-28T06:52:13.655Z,968.99
2016-10-28T06:53:13.671Z,968.95
2016-10-28T06:54:13.686Z,968.99
2016-10-28T06:55:13.703Z,968.95
2016-10-28T06:56:13.721Z,969
2016-10-28T06:57:13.746Z,968.97
2016-10-28T06:58:13.752Z,968.96
2016-10-28T06:59:13.769Z,968.93
2016-10-28T07:00:13.785Z,968.97
2016-10-28T07:01:13.803Z,968.94
2016-10-28T07:02:13.820Z,968.96
2016-10-28T07:03:13.836Z,968.97
2016-10-28T07:04:13.852Z,969.04
2016-10-28T07:05:13.867Z,968.98
2016-10-28T07:06:13.885Z,969
2016-10-28T07:07:13.903Z,969
2016-10-28T07:08:13.919Z,969.02
2016-10-28T07:09:13.935Z,969.05
2016-10-28T07:10:13.952Z,969.01
2016-10-28T07:11:13.969Z,969.06
2016-10-28T07:12:14.017Z,969.02
2016-10-28T07:13:14.002Z,969.04
2016-10-28T07:14:14.019Z,969.01
2016-10-28T07:15:14.036Z,969.05
2016-10-28T07:16:14.053Z,969.08
2016-10-28T07:17:14.070Z,969.08
2016-10-28T07:18:14.087Z,969.07
2016-10-28T07:19:14.113Z,969.11
2016-10-28T07:20:14.122Z,969.12
2016-10-28T07:21:14.139Z,969.1
2016-10-28T07:22:14.156Z,969.1
2016-10-28T07:23:14.174Z,969.12
2016-10-28T07:24:14.193Z,969.08
2016-10-28T07:25:14.208Z,969.06
2016-10-28T07:26:14.223Z,969.05
2016-10-28T07:27:14.242Z,969.03
2016-10-28T07:28:14.260Z,968.99
2016-10-28T07:29:14.275Z,969.02
2016-10-28T07:30:14.293Z,969.02
2016-10-28T07:31:14.312Z,969.02
2016-10-28T07:32:14.329Z,969.05
2016-10-28T07:33:14.347Z,969.09
2016-10-28T07:34:14.365Z,969.11
2016-10-28T07:35:14.384Z,969.18
2016-10-28T07:36:14.403Z,969.2
2016-10-28T07:37:14.421Z,969.22
2016-10-28T07:38:14.441Z,969.21
2016-10-28T07:39:14.459Z,969.19
2016-10-28T07:40:14.478Z,969.19
2016-10-28T07:41:14.586Z,969.19
2016-10-28T07:42:14.519Z,969.2
2016-10-28T07:43:14.539Z,969.11
2016-10-28T07:44:14.559Z,969.15
2016-10-28T07:45:14.578Z,969.17
2016-10-28T07:46:14.601Z,969.17
2016-10-28T07:47:14.621Z,969.16
2016-10-28T07:48:14.643Z,969.14
2016-10-28T07:49:14.665Z,969.18
2016-10-28T07:50:14.686Z,969.16
2016-10-28T07:51:14.707Z,969.2
2016-10-28T07:52:14.730Z,969.19
2016-10-28T07:53:14.752Z,969.18
2016-10-28T07:54:14.779Z,969.17
2016-10-28T07:55:14.796Z,969.19
2016-10-28T07:56:14.818Z,969.16
2016-10-28T07:57:14.852Z,969.13
2016-10-28T07:58:14.865Z,969.12
2016-10-28T07:59:14.886Z,969.16
2016-10-28T08:00:14.911Z,969.19
2016-10-28T08:01:14.933Z,969.18
2016-10-28T08:02:14.956Z,969.13
2016-10-28T08:03:14.981Z,969.15
2016-10-28T08:04:15.034Z,969.17
2016-10-28T08:05:15.025Z,969.15
2016-10-28T08:06:15.049Z,969.13
2016-10-28T08:07:15.075Z,969.13
2016-10-28T08:08:15.100Z,969.12
2016-10-28T08:09:15.117Z,969.13
2016-10-28T08:10:15.140Z,969.16
2016-10-28T08:11:15.165Z,969.16
2016-10-28T08:12:15.191Z,969.22
2016-10-28T08:13:15.211Z,969.26
2016-10-28T08:14:15.235Z,969.23
2016-10-28T08:15:15.258Z,969.31
2016-10-28T08:16:15.282Z,969.29
2016-10-28T08:17:15.308Z,969.31
2016-10-28T08:18:15.331Z,969.3
2016-10-28T08:19:15.356Z,969.32
2016-10-28T08:20:15.381Z,969.33
2016-10-28T08:21:15.404Z,969.35
2016-10-28T08:22:15.427Z,969.34
2016-10-28T08:23:15.452Z,969.37
2016-10-28T08:24:15.477Z,969.34
2016-10-28T08:25:15.502Z,969.38
2016-10-28T08:26:15.527Z,969.36
2016-10-28T08:27:15.551Z,969.32
2016-10-28T08:28:15.581Z,969.3
2016-10-28T08:29:15.650Z,969.3
2016-10-28T08:30:15.625Z,969.26
2016-10-28T08:31:15.650Z,969.29
2016-10-28T08:32:15.671Z,969.3
2016-10-28T08:33:15.696Z,969.33
2016-10-28T08:34:15.721Z,969.32
2016-10-28T08:35:15.744Z,969.32
2016-10-28T08:36:15.783Z,969.36
2016-10-28T08:37:15.793Z,969.37
2016-10-28T08:38:15.817Z,969.41
2016-10-28T08:39:15.841Z,969.36
2016-10-28T08:40:15.871Z,969.34
2016-10-28T08:41:15.889Z,969.39
2016-10-28T08:42:15.917Z,969.36
2016-10-28T08:43:15.939Z,969.35
2016-10-28T08:44:15.967Z,969.36
2016-10-28T08:45:15.995Z,969.36
2016-10-28T08:46:16.015Z,969.35
2016-10-28T08:47:16.076Z,969.3
2016-10-28T08:48:16.064Z,969.34
2016-10-28T08:49:16.091Z,969.34
2016-10-28T08:50:16.121Z,969.37
2016-10-28T08:51:16.140Z,969.33
2016-10-28T08:52:16.164Z,969.39
2016-10-28T08:53:16.191Z,969.37
2016-10-28T08:54:16.214Z,969.35
2016-10-28T08:55:16.238Z,969.33
2016-10-28T08:56:16.263Z,969.34
2016-10-28T08:57:16.287Z,969.31
2016-10-28T08:58:16.313Z,969.31
2016-10-28T08:59:16.340Z,969.33
2016-10-28T09:00:16.361Z,969.32
2016-10-28T09:01:16.386Z,969.27
2016-10-28T09:02:16.412Z,969.27
2016-10-28T09:03:16.433Z,969.25
2016-10-28T09:04:16.457Z,969.24
2016-10-28T09:05:16.481Z,969.21
2016-10-28T09:06:16.505Z,969.25
2016-10-28T09:07:16.530Z,969.25
2016-10-28T09:08:16.551Z,969.24
2016-10-28T09:09:16.578Z,969.25
2016-10-28T09:10:16.601Z,969.26
2016-10-28T09:11:16.625Z,969.25
2016-10-28T09:12:16.652Z,969.27
2016-10-28T09:13:16.672Z,969.22
2016-10-28T09:14:16.696Z,969.23
2016-10-28T09:15:16.718Z,969.19
2016-10-28T09:16:16.745Z,969.2
2016-10-28T09:17:16.768Z,969.24
2016-10-28T09:18:16.790Z,969.23
2016-10-28T09:19:16.816Z,969.24
2016-10-28T09:20:16.837Z,969.27
2016-10-28T09:21:16.863Z,969.29
2016-10-28T09:22:16.887Z,969.3
2016-10-28T09:23:16.930Z,969.31
2016-10-28T09:24:16.932Z,969.32
2016-10-28T09:25:16.957Z,969.36
2016-10-28T09:26:16.979Z,969.35
2016-10-28T09:27:17.004Z,969.39
2016-10-28T09:28:17.032Z,969.34
2016-10-28T09:29:17.051Z,969.36
2016-10-28T09:30:17.086Z,969.37
2016-10-28T09:31:17.100Z,969.28
2016-10-28T09:32:17.124Z,969.29
2016-10-28T09:33:17.147Z,969.3
2016-10-28T09:34:17.170Z,969.28
2016-10-28T09:35:17.194Z,969.32
2016-10-28T09:36:17.221Z,969.32
2016-10-28T09:37:17.241Z,969.33
2016-10-28T09:38:17.275Z,969.3
2016-10-28T09:39:17.292Z,969.33
2016-10-28T09:40:17.317Z,969.31
2016-10-28T09:41:17.338Z,969.27
2016-10-28T09:42:17.363Z,969.31
2016-10-28T09:43:17.387Z,969.27
2016-10-28T09:44:17.409Z,969.26
2016-10-28T09:45:17.433Z,969.28
2016-10-28T09:46:17.457Z,969.26
2016-10-28T09:47:17.481Z,969.24
2016-10-28T09:48:17.504Z,969.23
2016-10-28T09:49:17.530Z,969.26
2016-10-28T09:50:17.552Z,969.26
2016-10-28T09:51:17.577Z,969.31
2016-10-28T09:52:17.601Z,969.33
2016-10-28T09:53:17.625Z,969.38
2016-10-28T09:54:17.651Z,969.39
2016-10-28T09:55:17.674Z,969.36
2016-10-28T09:56:17.698Z,969.33
2016-10-28T09:57:17.721Z,969.39
2016-10-28T09:58:17.745Z,969.41
2016-10-28T09:59:17.771Z,969.46
2016-10-28T10:00:17.796Z,969.45
2016-10-28T10:01:17.819Z,969.44
2016-10-28T10:02:17.860Z,969.46
2016-10-28T10:03:17.867Z,969.43
2016-10-28T10:04:17.897Z,969.44
2016-10-28T10:05:17.916Z,969.46
2016-10-28T10:06:17.939Z,969.46
2016-10-28T10:07:17.965Z,969.42
2016-10-28T10:08:17.988Z,969.48
2016-10-28T10:09:18.013Z,969.47
2016-10-28T10:10:18.038Z,969.45
2016-10-28T10:11:18.061Z,969.47
2016-10-28T10:12:18.086Z,969.46
2016-10-28T10:13:18.111Z,969.48
2016-10-28T10:14:18.136Z,969.47
2016-10-28T10:15:18.161Z,969.43
2016-10-28T10:16:18.186Z,969.39
2016-10-28T10:17:18.216Z,969.38
2016-10-28T10:18:18.234Z,969.33
2016-10-28T10:19:18.261Z,969.28
2016-10-28T10:20:18.282Z,969.26
2016-10-28T10:21:18.307Z,969.26
2016-10-28T10:22:18.332Z,969.24
2016-10-28T10:23:18.357Z,969.26
2016-10-28T10:24:18.382Z,969.2
2016-10-28T10:25:18.420Z,969.26
2016-10-28T10:26:18.430Z,969.27
2016-10-28T10:27:18.455Z,969.28
2016-10-28T10:28:18.480Z,969.3
2016-10-28T10:29:18.505Z,969.28
2016-10-28T10:30:18.530Z,969.25
2016-10-28T10:31:18.555Z,969.24
2016-10-28T10:32:18.580Z,969.23
2016-10-28T10:33:18.604Z,969.18
2016-10-28T10:34:18.629Z,969.14
2016-10-28T10:35:18.653Z,969.17
2016-10-28T10:36:18.678Z,969.18
2016-10-28T10:37:18.703Z,969.06
2016-10-28T10:38:18.727Z,969.05
2016-10-28T10:39:18.751Z,969
2016-10-28T10:40:18.780Z,968.93
2016-10-28T10:41:18.806Z,968.91
2016-10-28T10:42:18.827Z,968.92
2016-10-28T10:43:18.856Z,968.96
2016-10-28T10:44:18.879Z,968.92
2016-10-28T10:45:18.901Z,968.88
2016-10-28T10:46:18.925Z,968.87
2016-10-28T10:47:18.949Z,968.85
2016-10-28T10:48:18.974Z,968.85
2016-10-28T10:49:19.010Z,968.85
2016-10-28T10:50:19.023Z,968.81
2016-10-28T10:51:19.049Z,968.84
2016-10-28T10:52:19.074Z,968.85
2016-10-28T10:53:19.098Z,968.86
2016-10-28T10:54:19.123Z,968.91
2016-10-28T10:55:19.146Z,968.95
2016-10-28T10:56:19.171Z,968.94
2016-10-28T10:57:19.197Z,968.99
2016-10-28T10:58:19.220Z,969.04
2016-10-28T10:59:19.252Z,969.06
2016-10-28T11:00:19.269Z,969.05
2016-10-28T11:01:19.292Z,969.08
2016-10-28T11:02:19.317Z,969.07
2016-10-28T11:03:19.344Z,969.01
2016-10-28T11:04:19.368Z,969.05
2016-10-28T11:05:19.389Z,969.04
2016-10-28T11:06:19.414Z,969.06
2016-10-28T11:07:19.440Z,969.03
2016-10-28T11:08:19.464Z,969.06
2016-10-28T11:09:19.488Z,969.03
2016-10-28T11:10:19.511Z,969.09
2016-10-28T11:11:19.536Z,969.11
2016-10-28T11:12:19.567Z,969.09
2016-10-28T11:13:19.582Z,969.08
2016-10-28T11:14:19.609Z,969.03
2016-10-28T11:15:19.634Z,968.93
2016-10-28T11:16:19.656Z,968.89
2016-10-28T11:17:19.681Z,968.86
2016-10-28T11:18:19.705Z,968.93
2016-10-28T11:19:19.733Z,968.96
2016-10-28T11:20:19.753Z,969.01
2016-10-28T11:21:19.777Z,968.98
2016-10-28T11:22:19.804Z,968.94
2016-10-28T11:23:19.826Z,968.97
2016-10-28T11:24:19.851Z,968.98
2016-10-28T11:25:19.875Z,968.96
2016-10-28T11:26:19.901Z,969.01
2016-10-28T11:27:19.925Z,969.01
2016-10-28T11:28:19.954Z,969.08
2016-10-28T11:29:19.975Z,969.1
2016-10-28T11:30:19.998Z,969.05
2016-10-28T11:31:20.022Z,969.02
2016-10-28T11:32:20.047Z,969.04
2016-10-28T11:33:20.074Z,969.06
2016-10-28T11:34:20.096Z,969.04
2016-10-28T11:35:20.121Z,969.04
2016-10-28T11:36:20.156Z,969.04
2016-10-28T11:37:20.170Z,969.03
2016-10-28T11:38:20.195Z,969.01
2016-10-28T11:39:20.220Z,968.97
2016-10-28T11:40:20.245Z,968.94
2016-10-28T11:41:20.270Z,968.95
2016-10-28T11:42:20.304Z,968.97
2016-10-28T11:43:20.324Z,969.04
2016-10-28T11:44:20.346Z,968.96
2016-10-28T11:45:20.368Z,968.97
2016-10-28T11:46:20.398Z,968.95
2016-10-28T11:47:20.419Z,968.95
2016-10-28T11:48:20.445Z,968.97
2016-10-28T11:49:20.468Z,969
2016-10-28T11:50:20.492Z,969
2016-10-28T11:51:20.521Z,969.02
2016-10-28T11:52:20.545Z,969
2016-10-28T11:53:20.565Z,969.03
2016-10-28T11:54:20.591Z,969.03
2016-10-28T11:55:20.616Z,969.03
2016-10-28T11:56:20.641Z,969.02
2016-10-28T11:57:20.665Z,969.01
2016-10-28T11:58:20.691Z,969
2016-10-28T11:59:20.714Z,968.97
2016-10-28T12:00:20.740Z,968.93
2016-10-28T12:01:20.763Z,968.91
2016-10-28T12:02:20.789Z,968.85
2016-10-28T12:03:20.812Z,968.85
2016-10-28T12:04:20.841Z,968.86
2016-10-28T12:05:20.861Z,968.86
2016-10-28T12:06:20.885Z,968.8
2016-10-28T12:07:20.928Z,968.81
2016-10-28T12:08:20.934Z,968.8
2016-10-28T12:09:20.958Z,968.81
2016-10-28T12:10:20.984Z,968.78
2016-10-28T12:11:21.007Z,968.8
2016-10-28T12:12:21.031Z,968.78
2016-10-28T12:13:21.055Z,968.78
2016-10-28T12:14:21.079Z,968.73
2016-10-28T12:15:21.103Z,968.72
2016-10-28T12:16:21.129Z,968.73
2016-10-28T12:17:21.153Z,968.82
2016-10-28T12:18:21.176Z,968.78
2016-10-28T12:19:21.201Z,968.77
2016-10-28T12:20:21.227Z,968.78
2016-10-28T12:21:21.252Z,968.8
2016-10-28T12:22:21.274Z,968.83
2016-10-28T12:23:21.302Z,968.83
2016-10-28T12:24:21.323Z,968.85
2016-10-28T12:25:21.349Z,968.83
2016-10-28T12:26:21.377Z,968.85
2016-10-28T12:27:21.397Z,968.85
2016-10-28T12:28:21.421Z,968.81
2016-10-28T12:29:21.449Z,968.81
2016-10-28T12:30:21.469Z,968.79
2016-10-28T12:31:21.496Z,968.73
2016-10-28T12:32:21.519Z,968.69
2016-10-28T12:33:21.543Z,968.62